world map with FABM marked

FABM - Airport

This information may not be accurate or current and is not valid for navigation or flight planning. No warranty of fitness for any purpose is made or implied.

flag of Free Stateflag of South Africa

Donate via PayPal

Additional information is available on the NEW Great Circle Mapper

Location
City:  Bethlehem, Free State, South Africa
ICAO:FABM

Details
Type:Airport (Aerodrome, Airfield)
Latitude:28°14'54"S (-28.248391)
Longitude:28°20'10"E (28.336125)
Datum:WGS 1984
Elevation:5561 ft (1695 m)
Runways:2
Longest:4301 × 150 ft (1311 × 45.5 m)

Time
Timezone:UTC+2 (DST+4)
Local Time:

Weather
METAR:FABM  041254Z 24008G20KT 9999 FEW030 26/06 Q1021

Related Locations
Nearby:
Farthest:HNM: 11852 mi / 19074 km
Hana, Maui, HI, US

Find:

   beyond  
but within

Other Information
Maps:
Sources:

  


 


Great Circle Mapper   Great Circle Mapper
Great Circle Mapper FAQ   Great Circle Mapper FAQ
  Karl's Home Page
KLSē   KLSē Home
   GC on Facebook
Airlines of the World   Airlines of the World
Donate via PayPal


Copyright © 2004-2019, Karl L. Swartz. All rights reserved.
All trademarks mentioned herein belong to their respective owners.

Please see credits for attribution and copyright information.

Karl Swartz <karl@kls2.com>
  Powered by FreeBSD
Valid HTML 4.01!
Labeled with ICRA
hCard Microformat
Geo Microformat